createdAt,value
2022-11-15T00:00:01.604Z,5.95
2022-11-15T00:02:31.464Z,5.95
2022-11-15T00:04:59.889Z,5.92
2022-11-15T00:07:54.052Z,5.90
2022-11-15T00:10:16.800Z,5.88
2022-11-15T00:12:45.440Z,5.92
2022-11-15T00:15:13.823Z,5.89
2022-11-15T00:17:43.622Z,5.88
2022-11-15T00:20:13.260Z,5.90
2022-11-15T00:22:41.662Z,5.89
2022-11-15T00:25:10.352Z,5.91
2022-11-15T00:27:38.732Z,5.90
2022-11-15T00:30:08.339Z,5.85
2022-11-15T00:32:36.773Z,5.85
2022-11-15T00:35:07.707Z,5.85
2022-11-15T00:37:36.013Z,5.86
2022-11-15T00:40:04.565Z,5.91
2022-11-15T00:42:32.911Z,5.92
2022-11-15T00:45:01.313Z,5.96
2022-11-15T00:47:29.681Z,5.92
2022-11-15T00:49:58.043Z,5.94
2022-11-15T00:52:27.815Z,5.83
2022-11-15T00:54:56.275Z,5.76
2022-11-15T00:57:24.703Z,5.55
2022-11-15T00:59:53.187Z,5.61
2022-11-15T01:02:23.192Z,5.74
2022-11-15T01:04:51.514Z,5.76
2022-11-15T01:07:20.078Z,5.66
2022-11-15T01:09:49.961Z,5.70
2022-11-15T01:12:18.284Z,5.65
2022-11-15T01:14:46.640Z,5.55
2022-11-15T01:17:14.989Z,5.55
2022-11-15T01:19:43.469Z,5.55
2022-11-15T01:22:12.060Z,5.53
2022-11-15T01:24:40.569Z,5.55
2022-11-15T01:27:10.642Z,5.51
2022-11-15T01:29:39.028Z,5.51
2022-11-15T01:32:07.535Z,5.55
2022-11-15T01:34:36.144Z,5.54
2022-11-15T01:37:04.909Z,5.54
2022-11-15T01:39:33.267Z,5.51
2022-11-15T01:42:01.975Z,5.49
2022-11-15T01:44:45.630Z,5.48
2022-11-15T01:47:18.381Z,5.51
2022-11-15T01:49:55.121Z,5.49
2022-11-15T01:52:26.310Z,5.46
2022-11-15T01:54:59.251Z,5.37
2022-11-15T01:57:27.637Z,5.32
2022-11-15T01:59:59.368Z,5.28
2022-11-15T02:02:28.005Z,5.26
2022-11-15T02:04:56.557Z,5.15
2022-11-15T02:07:25.400Z,5.24
2022-11-15T02:09:54.962Z,5.23
2022-11-15T02:12:24.288Z,5.29
2022-11-15T02:14:56.328Z,5.37
2022-11-15T02:17:37.338Z,5.40
2022-11-15T02:20:32.932Z,5.41
2022-11-15T02:23:29.325Z,5.41
2022-11-15T02:26:22.504Z,5.43
2022-11-15T02:29:01.356Z,5.45
2022-11-15T02:31:36.799Z,5.44
2022-11-15T02:34:11.346Z,5.44
2022-11-15T02:36:46.604Z,5.35
2022-11-15T02:39:23.588Z,5.33
2022-11-15T02:41:56.933Z,5.31
2022-11-15T02:44:29.364Z,5.33
2022-11-15T02:47:17.383Z,5.32
2022-11-15T02:49:49.216Z,5.30
2022-11-15T02:52:18.537Z,5.30
2022-11-15T02:54:56.459Z,5.22
2022-11-15T02:57:37.941Z,5.21
2022-11-15T03:00:09.459Z,5.26
2022-11-15T03:03:16.099Z,5.27
2022-11-15T03:05:53.979Z,5.25
2022-11-15T03:08:28.750Z,5.25
2022-11-15T03:11:05.719Z,5.22
2022-11-15T03:13:42.243Z,5.22
2022-11-15T03:16:16.697Z,5.21
2022-11-15T03:18:50.545Z,5.20
2022-11-15T03:21:23.883Z,5.18
2022-11-15T03:23:54.672Z,5.13
2022-11-15T03:26:26.129Z,5.12
2022-11-15T03:28:58.998Z,5.10
2022-11-15T03:31:51.645Z,5.07
2022-11-15T03:34:28.899Z,5.04
2022-11-15T03:36:59.047Z,5.01
2022-11-15T03:39:28.601Z,4.97
2022-11-15T03:42:06.745Z,4.97
2022-11-15T03:44:44.159Z,4.93
2022-11-15T03:47:19.531Z,4.90
2022-11-15T03:49:53.431Z,4.86
2022-11-15T03:52:24.378Z,4.84
2022-11-15T03:54:54.802Z,4.81
2022-11-15T03:57:23.408Z,4.78
2022-11-15T03:59:51.744Z,4.75
2022-11-15T04:02:20.124Z,4.72
2022-11-15T04:04:48.521Z,4.69
2022-11-15T04:07:17.021Z,4.65
2022-11-15T04:10:06.695Z,4.56
2022-11-15T04:12:36.441Z,4.56
2022-11-15T04:15:09.734Z,4.55
2022-11-15T04:17:40.230Z,4.54
2022-11-15T04:20:29.078Z,4.53
2022-11-15T04:23:29.963Z,4.51
2022-11-15T04:26:03.417Z,4.47
2022-11-15T04:28:31.884Z,4.47
2022-11-15T04:31:00.674Z,4.46
2022-11-15T04:33:29.558Z,4.33
2022-11-15T04:36:24.274Z,4.42
2022-11-15T04:38:52.731Z,4.36
2022-11-15T04:41:22.523Z,4.38
2022-11-15T04:43:51.356Z,4.36
2022-11-15T04:46:19.871Z,4.36
2022-11-15T04:48:48.261Z,4.34
2022-11-15T04:51:16.607Z,4.29
2022-11-15T04:53:45.036Z,4.28
2022-11-15T04:56:13.523Z,4.26
2022-11-15T04:58:43.272Z,4.25
2022-11-15T05:01:13.192Z,4.20
2022-11-15T05:03:59.043Z,4.01
2022-11-15T05:06:27.528Z,3.98
2022-11-15T05:08:56.601Z,3.99
2022-11-15T05:11:25.588Z,3.99
2022-11-15T05:13:55.676Z,3.98
2022-11-15T05:16:24.222Z,4.01
2022-11-15T05:18:53.984Z,4.00
2022-11-15T05:21:22.894Z,4.00
2022-11-15T05:23:51.337Z,3.98
2022-11-15T05:26:21.023Z,4.00
2022-11-15T05:28:49.458Z,4.00
2022-11-15T05:31:19.287Z,3.98
2022-11-15T05:33:47.982Z,3.94
2022-11-15T05:36:21.389Z,3.95
2022-11-15T05:38:51.305Z,3.94
2022-11-15T05:41:22.932Z,3.92
2022-11-15T05:43:52.742Z,3.91
2022-11-15T05:46:22.688Z,3.87
2022-11-15T05:48:53.995Z,3.88
2022-11-15T05:51:24.128Z,3.84
2022-11-15T05:53:54.892Z,3.84
2022-11-15T05:56:23.372Z,3.83
2022-11-15T05:58:56.754Z,3.81
2022-11-15T06:01:30.089Z,3.81
2022-11-15T06:03:58.558Z,3.76
2022-11-15T06:06:26.983Z,3.76
2022-11-15T06:08:55.519Z,3.75
2022-11-15T06:11:23.877Z,3.71
2022-11-15T06:13:52.298Z,3.70
2022-11-15T06:16:20.668Z,3.70
2022-11-15T06:18:50.519Z,3.67
2022-11-15T06:21:18.866Z,3.68
2022-11-15T06:23:47.281Z,3.66
2022-11-15T06:26:15.636Z,3.66
2022-11-15T06:28:44.053Z,3.58
2022-11-15T06:31:13.767Z,3.48
2022-11-15T06:33:42.893Z,3.23
2022-11-15T06:36:17.904Z,3.26
2022-11-15T06:38:46.871Z,3.32
2022-11-15T06:41:16.314Z,3.38
2022-11-15T06:43:44.792Z,3.43
2022-11-15T06:46:13.368Z,3.46
2022-11-15T06:48:41.806Z,3.50
2022-11-15T06:51:10.225Z,3.52
2022-11-15T06:53:40.046Z,3.50
2022-11-15T06:56:10.448Z,3.53
2022-11-15T06:58:38.941Z,3.49
2022-11-15T07:01:09.087Z,3.54
2022-11-15T07:03:38.592Z,3.61
2022-11-15T07:06:08.008Z,3.64
2022-11-15T07:08:37.054Z,3.69
2022-11-15T07:11:08.867Z,3.72
2022-11-15T07:13:38.506Z,3.76
2022-11-15T07:16:08.799Z,3.81
2022-11-15T07:18:38.167Z,3.84
2022-11-15T07:21:08.062Z,3.95
2022-11-15T07:23:38.781Z,4.04
2022-11-15T07:26:09.108Z,4.10
2022-11-15T07:28:38.028Z,4.20
2022-11-15T07:31:07.933Z,4.24
2022-11-15T07:33:36.731Z,4.36
2022-11-15T07:36:06.418Z,4.42
2022-11-15T07:38:40.994Z,4.48
2022-11-15T07:41:12.663Z,4.57
2022-11-15T07:43:41.035Z,4.59
2022-11-15T07:46:11.083Z,4.61
2022-11-15T07:48:45.320Z,4.64
2022-11-15T07:51:15.655Z,4.69
2022-11-15T07:53:44.433Z,4.76
2022-11-15T07:56:14.678Z,4.84
2022-11-15T07:58:43.081Z,4.92
2022-11-15T08:01:12.806Z,4.88
2022-11-15T08:03:41.644Z,5.14
2022-11-15T08:06:10.061Z,5.22
2022-11-15T08:08:38.490Z,5.15
2022-11-15T08:11:06.952Z,5.34
2022-11-15T08:13:36.804Z,5.48
2022-11-15T08:16:06.763Z,5.58
2022-11-15T08:18:35.346Z,5.66
2022-11-15T08:21:04.414Z,5.72
2022-11-15T08:23:33.702Z,5.72
2022-11-15T08:26:03.979Z,5.87
2022-11-15T08:28:32.657Z,5.92
2022-11-15T08:31:02.647Z,6.00
2022-11-15T08:33:31.515Z,6.08
2022-11-15T08:36:00.486Z,6.17
2022-11-15T08:38:30.260Z,6.35
2022-11-15T08:41:03.862Z,6.40
2022-11-15T08:43:32.397Z,6.47
2022-11-15T08:46:02.370Z,6.55
2022-11-15T08:48:32.129Z,6.59
2022-11-15T08:51:00.737Z,6.76
2022-11-15T08:53:29.129Z,6.98
2022-11-15T08:55:57.509Z,7.00
2022-11-15T08:58:25.940Z,7.20
2022-11-15T09:00:54.893Z,7.23
2022-11-15T09:03:24.656Z,7.29
2022-11-15T09:05:58.237Z,7.29
2022-11-15T09:11:17.639Z,7.46
2022-11-15T09:13:46.378Z,7.59
2022-11-15T09:16:16.473Z,7.64
2022-11-15T09:18:46.331Z,7.68
2022-11-15T09:21:15.252Z,7.73
2022-11-15T09:23:43.822Z,7.78
2022-11-15T09:26:12.177Z,7.88
2022-11-15T09:28:42.970Z,8.01
2022-11-15T09:31:11.958Z,8.09
2022-11-15T09:33:40.562Z,8.19
2022-11-15T09:36:12.035Z,8.39
2022-11-15T09:38:40.552Z,8.53
2022-11-15T09:41:28.355Z,8.58
2022-11-15T09:44:08.381Z,8.65
2022-11-15T09:46:46.075Z,8.74
2022-11-15T09:49:17.531Z,8.85
2022-11-15T09:51:50.042Z,8.94
2022-11-15T09:57:19.754Z,9.15
2022-11-15T10:03:13.791Z,9.24
2022-11-15T10:05:45.213Z,9.28
2022-11-15T10:08:34.179Z,9.36
2022-11-15T10:13:59.026Z,9.54
2022-11-15T10:16:49.926Z,9.66
2022-11-15T10:19:25.816Z,9.72
2022-11-15T10:22:02.870Z,9.84
2022-11-15T10:24:37.898Z,9.95
2022-11-15T10:27:13.428Z,10.08
2022-11-15T10:29:46.190Z,10.15
2022-11-15T10:32:15.893Z,10.18
2022-11-15T10:34:44.366Z,10.18
2022-11-15T10:37:12.910Z,10.32
2022-11-15T10:39:42.795Z,10.40
2022-11-15T10:42:19.348Z,10.47
2022-11-15T10:44:53.185Z,10.56
2022-11-15T10:47:37.779Z,10.67
2022-11-15T10:50:10.187Z,10.83
2022-11-15T10:52:46.544Z,11.13
2022-11-15T10:55:28.881Z,11.14
2022-11-15T10:57:59.011Z,11.14
2022-11-15T11:00:34.307Z,11.15
2022-11-15T11:03:04.360Z,11.21
2022-11-15T11:05:41.312Z,11.35
2022-11-15T11:08:25.224Z,11.39
2022-11-15T11:11:03.074Z,11.47
2022-11-15T11:13:33.885Z,11.51
2022-11-15T11:16:26.077Z,11.67
2022-11-15T11:19:07.222Z,11.71
2022-11-15T11:21:46.044Z,11.79
2022-11-15T11:24:26.611Z,11.82
2022-11-15T11:27:20.479Z,11.90
2022-11-15T11:30:04.336Z,11.94
2022-11-15T11:32:55.408Z,12.02
2022-11-15T11:35:29.682Z,12.17
2022-11-15T11:38:16.326Z,12.24
2022-11-15T11:40:55.229Z,12.31
2022-11-15T11:43:33.088Z,12.44
2022-11-15T11:46:22.168Z,12.51
2022-11-15T11:48:55.539Z,12.58
2022-11-15T11:51:30.169Z,12.64
2022-11-15T11:54:03.534Z,12.68
2022-11-15T11:56:35.987Z,12.80
2022-11-15T11:59:16.562Z,12.88
2022-11-15T12:01:46.805Z,12.99
2022-11-15T12:04:21.582Z,13.04
2022-11-15T12:06:54.558Z,13.10
2022-11-15T12:09:30.933Z,13.15
2022-11-15T12:12:07.098Z,13.21
2022-11-15T12:14:43.868Z,13.29
2022-11-15T12:17:13.584Z,13.39
2022-11-15T12:19:43.945Z,13.49
2022-11-15T12:22:22.416Z,13.58
2022-11-15T12:24:58.357Z,13.64
2022-11-15T12:27:34.848Z,13.72
2022-11-15T12:30:11.689Z,13.82
2022-11-15T12:32:42.306Z,13.94
2022-11-15T12:35:25.803Z,14.01
2022-11-15T12:37:57.397Z,14.13
2022-11-15T12:40:35.137Z,14.23
2022-11-15T12:43:33.818Z,14.30
2022-11-15T12:46:07.937Z,14.35
2022-11-15T12:49:00.598Z,14.51
2022-11-15T12:52:09.753Z,14.63
2022-11-15T12:55:06.453Z,14.77
2022-11-15T12:57:45.673Z,14.90
2022-11-15T13:00:48.202Z,15.02
2022-11-15T13:03:29.735Z,15.13
2022-11-15T13:06:10.734Z,15.21
2022-11-15T13:08:48.316Z,15.28
2022-11-15T13:11:47.766Z,15.34
2022-11-15T13:14:51.027Z,15.46
2022-11-15T13:17:34.546Z,15.56
2022-11-15T13:20:20.280Z,15.61
2022-11-15T13:22:52.700Z,15.69
2022-11-15T13:25:44.396Z,15.66
2022-11-15T13:28:21.540Z,15.75
2022-11-15T13:30:54.857Z,15.88
2022-11-15T13:33:25.995Z,15.96
2022-11-15T13:35:59.313Z,16.04
2022-11-15T13:38:32.758Z,16.09
2022-11-15T13:41:02.838Z,16.14
2022-11-15T13:43:37.470Z,16.11
2022-11-15T13:46:13.712Z,16.16
2022-11-15T13:48:43.102Z,16.25
2022-11-15T13:51:21.085Z,16.29
2022-11-15T13:53:54.322Z,16.30
2022-11-15T13:56:23.439Z,16.23
2022-11-15T13:58:51.910Z,16.24
2022-11-15T14:01:22.396Z,16.31
2022-11-15T14:03:56.279Z,16.38
2022-11-15T14:06:28.425Z,16.35
2022-11-15T14:09:27.177Z,16.29
2022-11-15T14:11:57.166Z,16.24
2022-11-15T14:14:26.756Z,16.19
2022-11-15T14:16:56.916Z,16.19
2022-11-15T14:19:42.305Z,16.08
2022-11-15T14:22:17.853Z,16.02
2022-11-15T14:24:48.069Z,15.96
2022-11-15T14:27:28.394Z,15.84
2022-11-15T14:29:57.148Z,15.76
2022-11-15T14:32:27.200Z,15.72
2022-11-15T14:34:58.564Z,15.68
2022-11-15T14:37:32.612Z,15.67
2022-11-15T14:40:01.321Z,15.61
2022-11-15T14:42:29.871Z,15.53
2022-11-15T14:44:58.307Z,15.42
2022-11-15T14:47:26.725Z,15.33
2022-11-15T14:49:55.290Z,15.18
2022-11-15T14:52:32.820Z,15.05
2022-11-15T14:55:02.548Z,14.95
2022-11-15T14:57:31.207Z,14.82
2022-11-15T14:59:59.617Z,14.70
2022-11-15T15:02:29.448Z,14.59
2022-11-15T15:05:02.218Z,14.48
2022-11-15T15:07:32.087Z,14.34
2022-11-15T15:10:32.281Z,14.27
2022-11-15T15:12:49.100Z,14.19
2022-11-15T15:15:20.277Z,14.09
2022-11-15T15:17:48.621Z,13.95
2022-11-15T15:20:17.803Z,13.83
2022-11-15T15:22:47.991Z,13.73
2022-11-15T15:25:24.967Z,13.52
2022-11-15T15:27:53.352Z,13.49
2022-11-15T15:30:21.813Z,13.54
2022-11-15T15:32:50.880Z,13.57
2022-11-15T15:35:20.159Z,13.55
2022-11-15T15:37:51.186Z,13.47
2022-11-15T15:40:21.224Z,13.36
2022-11-15T15:42:50.187Z,13.36
2022-11-15T15:45:20.282Z,13.38
2022-11-15T15:47:50.615Z,13.36
2022-11-15T15:50:26.907Z,13.37
2022-11-15T15:52:58.839Z,13.36
2022-11-15T15:55:27.836Z,13.33
2022-11-15T15:57:56.445Z,13.21
2022-11-15T16:00:26.546Z,13.25
2022-11-15T16:02:55.470Z,13.12
2022-11-15T16:05:24.679Z,13.17
2022-11-15T16:07:53.556Z,13.12
2022-11-15T16:10:37.911Z,13.04
2022-11-15T16:13:06.383Z,12.92
2022-11-15T16:15:34.856Z,12.71
2022-11-15T16:18:04.295Z,12.54
2022-11-15T16:20:35.747Z,12.41
2022-11-15T16:23:09.086Z,12.26
2022-11-15T16:25:43.587Z,12.11
2022-11-15T16:28:31.230Z,12.01
2022-11-15T16:31:04.113Z,11.99
2022-11-15T16:33:32.958Z,12.00
2022-11-15T16:36:01.714Z,12.02
2022-11-15T16:38:30.324Z,12.03
2022-11-15T16:41:00.484Z,12.03
2022-11-15T16:43:28.950Z,12.01
2022-11-15T16:45:57.396Z,12.00
2022-11-15T16:48:27.864Z,11.98
2022-11-15T16:50:59.068Z,11.95
2022-11-15T16:53:28.626Z,11.88
2022-11-15T16:55:57.635Z,11.86
2022-11-15T16:58:27.467Z,11.83
2022-11-15T17:00:57.493Z,11.73
2022-11-15T17:03:26.515Z,11.62
2022-11-15T17:05:54.911Z,11.53
2022-11-15T17:08:24.416Z,11.40
2022-11-15T17:10:53.020Z,11.34
2022-11-15T17:13:21.401Z,11.29
2022-11-15T17:15:51.166Z,11.27
2022-11-15T17:18:21.487Z,11.21
2022-11-15T17:20:49.875Z,11.18
2022-11-15T17:23:18.315Z,11.13
2022-11-15T17:25:46.704Z,11.06
2022-11-15T17:28:15.209Z,11.05
2022-11-15T17:30:44.685Z,11.00
2022-11-15T17:33:14.493Z,10.93
2022-11-15T17:35:42.836Z,10.87
2022-11-15T17:38:11.212Z,10.82
2022-11-15T17:40:39.602Z,10.76
2022-11-15T17:43:08.399Z,10.72
2022-11-15T17:45:37.768Z,10.66
2022-11-15T17:48:06.854Z,10.59
2022-11-15T17:50:36.617Z,10.53
2022-11-15T17:53:05.023Z,10.46
2022-11-15T17:55:34.416Z,10.41
2022-11-15T17:58:02.759Z,10.37
2022-11-15T18:00:31.082Z,10.31
2022-11-15T18:02:59.444Z,10.26
2022-11-15T18:05:28.116Z,10.19
2022-11-15T18:07:57.994Z,10.15
2022-11-15T18:10:26.422Z,10.08
2022-11-15T18:12:54.898Z,10.01
2022-11-15T18:15:23.283Z,9.94
2022-11-15T18:17:51.585Z,9.89
2022-11-15T18:20:20.180Z,9.82
2022-11-15T18:22:48.721Z,9.78
2022-11-15T18:25:18.600Z,9.72
2022-11-15T18:27:46.951Z,9.68
2022-11-15T18:30:16.034Z,9.61
2022-11-15T18:32:44.466Z,9.57
2022-11-15T18:35:12.888Z,9.52
2022-11-15T18:37:41.303Z,9.48
2022-11-15T18:40:11.018Z,9.45
2022-11-15T18:42:40.811Z,9.42
2022-11-15T18:45:10.641Z,9.37
2022-11-15T18:47:39.086Z,9.31
2022-11-15T18:50:08.260Z,9.26
2022-11-15T18:52:36.623Z,9.22
2022-11-15T18:55:05.518Z,9.17
2022-11-15T18:57:33.962Z,9.13
2022-11-15T19:00:04.172Z,9.07
2022-11-15T19:02:32.574Z,9.00
2022-11-15T19:05:00.957Z,8.94
2022-11-15T19:07:29.505Z,8.97
2022-11-15T19:09:58.042Z,8.88
2022-11-15T19:12:26.419Z,8.92
2022-11-15T19:14:54.798Z,8.87
2022-11-15T19:17:24.615Z,8.84
2022-11-15T19:19:52.988Z,8.80
2022-11-15T19:22:21.370Z,8.77
2022-11-15T19:24:58.053Z,8.76
2022-11-15T19:27:26.876Z,8.75
2022-11-15T19:29:55.361Z,8.72
2022-11-15T19:32:25.259Z,8.65
2022-11-15T19:34:53.623Z,8.55
2022-11-15T19:37:21.978Z,8.53
2022-11-15T19:41:06.730Z,8.62
2022-11-15T19:43:35.577Z,8.61
2022-11-15T19:46:06.072Z,8.63
2022-11-15T19:48:35.862Z,8.63
2022-11-15T19:51:05.661Z,8.54
2022-11-15T19:53:35.145Z,8.44
2022-11-15T19:56:07.355Z,8.44
2022-11-15T19:58:36.366Z,8.45
2022-11-15T20:01:07.080Z,8.43
2022-11-15T20:03:37.058Z,8.45
2022-11-15T20:06:07.332Z,8.45
2022-11-15T20:08:36.659Z,8.46
2022-11-15T20:11:07.209Z,8.50
2022-11-15T20:13:35.566Z,8.49
2022-11-15T20:16:04.195Z,8.47
2022-11-15T20:18:33.062Z,8.50
2022-11-15T20:21:03.002Z,8.51
2022-11-15T20:23:32.008Z,8.50
2022-11-15T20:26:00.371Z,8.51
2022-11-15T20:28:31.167Z,8.47
2022-11-15T20:31:02.127Z,8.42
2022-11-15T20:33:30.558Z,8.44
2022-11-15T20:35:58.883Z,8.43
2022-11-15T20:38:27.555Z,8.42
2022-11-15T20:41:00.001Z,8.43
2022-11-15T20:43:30.274Z,8.45
2022-11-15T20:45:58.636Z,8.46
2022-11-15T20:48:27.478Z,8.47
2022-11-15T20:51:06.521Z,8.48
2022-11-15T20:53:36.068Z,8.80
2022-11-15T20:56:07.874Z,8.79
2022-11-15T20:58:38.938Z,8.76
2022-11-15T21:01:08.776Z,8.72
2022-11-15T21:03:37.403Z,8.67
2022-11-15T21:06:06.073Z,8.60
2022-11-15T21:08:54.775Z,8.57
2022-11-15T21:11:40.307Z,8.56
2022-11-15T21:14:10.078Z,8.56
2022-11-15T21:16:39.095Z,8.92
2022-11-15T21:19:08.007Z,9.02
2022-11-15T21:21:37.273Z,8.97
2022-11-15T21:24:06.466Z,8.88
2022-11-15T21:26:35.268Z,8.82
2022-11-15T21:29:04.031Z,8.74
2022-11-15T21:31:34.276Z,8.72
2022-11-15T21:34:03.812Z,8.67
2022-11-15T21:36:32.492Z,8.63
2022-11-15T21:39:00.909Z,8.63
2022-11-15T21:41:29.873Z,8.61
2022-11-15T21:43:59.676Z,8.61
2022-11-15T21:46:29.391Z,8.59
2022-11-15T21:48:59.957Z,8.56
2022-11-15T21:51:28.388Z,8.56
2022-11-15T21:53:57.317Z,8.61
2022-11-15T21:56:26.962Z,8.57
2022-11-15T21:58:56.444Z,8.55
2022-11-15T22:01:43.536Z,8.61
2022-11-15T22:04:13.712Z,8.56
2022-11-15T22:06:42.248Z,8.53
2022-11-15T22:09:10.858Z,8.53
2022-11-15T22:11:39.462Z,8.52
2022-11-15T22:14:08.162Z,8.49
2022-11-15T22:16:37.942Z,8.47
2022-11-15T22:19:06.863Z,8.47
2022-11-15T22:21:38.331Z,8.52
2022-11-15T22:24:07.805Z,8.52
2022-11-15T22:26:36.389Z,8.48
2022-11-15T22:29:05.109Z,8.31
2022-11-15T22:31:33.739Z,8.46
2022-11-15T22:34:02.373Z,8.46
2022-11-15T22:36:46.839Z,8.43
2022-11-15T22:39:21.261Z,8.43
2022-11-15T22:41:49.843Z,8.39
2022-11-15T22:44:18.523Z,8.37
2022-11-15T22:46:47.565Z,8.32
2022-11-15T22:49:16.226Z,8.33
2022-11-15T22:51:45.219Z,8.29
2022-11-15T22:54:13.818Z,8.28
2022-11-15T22:56:43.840Z,8.27
2022-11-15T22:59:12.470Z,8.24
2022-11-15T23:01:41.088Z,8.26
2022-11-15T23:04:09.683Z,8.26
2022-11-15T23:06:38.292Z,8.25
2022-11-15T23:09:07.079Z,8.26
2022-11-15T23:11:53.300Z,8.24
2022-11-15T23:14:23.379Z,8.24
2022-11-15T23:16:52.720Z,8.21
2022-11-15T23:19:21.488Z,8.21
2022-11-15T23:22:07.424Z,8.18
2022-11-15T23:24:36.302Z,8.17
2022-11-15T23:27:07.395Z,8.17
2022-11-15T23:29:58.858Z,8.16
2022-11-15T23:32:45.032Z,8.14
2022-11-15T23:35:13.724Z,8.09
2022-11-15T23:37:42.293Z,8.10
2022-11-15T23:40:12.696Z,8.10
2022-11-15T23:42:41.519Z,8.11
2022-11-15T23:45:12.018Z,8.11
2022-11-15T23:47:40.572Z,8.11
2022-11-15T23:50:10.332Z,8.09
2022-11-15T23:52:39.050Z,8.09
2022-11-15T23:55:08.655Z,8.08
2022-11-15T23:57:37.216Z,8.07
